Terminal Aerodrome Forecast
Issued by NWS Wakefield, VA

Home | Current Version | Previous Version | Text Only | Print | Product List | Glossary On
Versions: 1 2 3 4 5 6 7 8 9 10 11 12 13 14 15 16 17
000
FTUS41 KAKQ 021946 AAA
TAFSBY
TAF AMD
KSBY 021946Z 0220/0318 05006KT P6SM VCSH OVC015
      TEMPO 0220/0222 OVC008
     FM022200 03005KT 5SM -SHRA SCT015 OVC025
     FM030200 35003KT 4SM BR OVC025
     FM030500 VRB03KT 4SM BR OVC015=

USA.gov is the U.S. government's official web portal to all federal, state and local government web resources and services.